createdAt,value
2018-09-20T00:01:39.941Z,3.10
2018-09-20T00:04:06.857Z,3.33
2018-09-20T00:06:33.845Z,3.93
2018-09-20T00:09:00.803Z,3.40
2018-09-20T00:11:27.736Z,3.83
2018-09-20T00:13:54.689Z,3.57
2018-09-20T00:16:21.604Z,3.87
2018-09-20T00:18:48.521Z,3.80
2018-09-20T00:21:15.469Z,3.60
2018-09-20T00:23:42.375Z,3.73
2018-09-20T00:26:09.317Z,3.40
2018-09-20T00:28:36.272Z,3.43
2018-09-20T00:31:03.232Z,4.40
2018-09-20T00:33:30.171Z,3.70
2018-09-20T00:35:57.073Z,3.70
2018-09-20T00:38:24.010Z,3.70
2018-09-20T00:40:50.949Z,3.60
2018-09-20T00:43:17.885Z,3.80
2018-09-20T00:45:44.795Z,3.80
2018-09-20T00:48:11.714Z,4.10
2018-09-20T00:50:38.650Z,4.13
2018-09-20T00:53:06.021Z,3.83
2018-09-20T00:55:32.937Z,4.20
2018-09-20T00:57:59.863Z,4.17
2018-09-20T01:00:26.833Z,4.17
2018-09-20T01:02:53.727Z,3.90
2018-09-20T01:05:20.700Z,3.67
2018-09-20T01:07:47.663Z,3.73
2018-09-20T01:10:14.626Z,4.37
2018-09-20T01:12:41.577Z,4.30
2018-09-20T01:15:08.537Z,3.67
2018-09-20T01:17:35.670Z,4.10
2018-09-20T01:20:02.717Z,4.07
2018-09-20T01:22:36.388Z,4.73
2018-09-20T01:25:03.372Z,4.20
2018-09-20T01:27:30.307Z,4.93
2018-09-20T01:29:57.298Z,4.33
2018-09-20T01:32:24.228Z,4.50
2018-09-20T01:34:51.152Z,4.10
2018-09-20T01:37:18.107Z,4.63
2018-09-20T01:39:45.043Z,4.40
2018-09-20T01:42:11.982Z,3.93
2018-09-20T01:44:38.893Z,4.63
2018-09-20T01:47:05.851Z,4.13
2018-09-20T01:49:32.822Z,4.77
2018-09-20T01:51:59.976Z,4.60
2018-09-20T01:54:26.905Z,4.30
2018-09-20T01:56:53.821Z,4.60
2018-09-20T01:59:20.797Z,4.83
2018-09-20T02:01:47.725Z,4.30
2018-09-20T02:04:14.670Z,4.37
2018-09-20T02:06:41.592Z,4.50
2018-09-20T02:09:09.548Z,4.70
2018-09-20T02:11:36.496Z,4.40
2018-09-20T02:14:03.768Z,4.67
2018-09-20T02:16:30.697Z,4.67
2018-09-20T02:18:57.644Z,4.97
2018-09-20T02:21:24.584Z,4.30
2018-09-20T02:23:51.521Z,4.90
2018-09-20T02:26:18.448Z,4.83
2018-09-20T02:28:45.606Z,4.57
2018-09-20T02:31:12.588Z,5.43
2018-09-20T02:33:39.530Z,5.03
2018-09-20T02:36:06.453Z,4.80
2018-09-20T02:38:33.656Z,4.37
2018-09-20T02:41:00.574Z,4.50
2018-09-20T02:43:27.503Z,4.57
2018-09-20T02:45:54.440Z,4.87
2018-09-20T02:48:21.352Z,4.97
2018-09-20T02:50:48.276Z,4.77
2018-09-20T02:53:15.205Z,4.57
2018-09-20T02:55:42.117Z,4.80
2018-09-20T02:58:09.040Z,4.83
2018-09-20T03:00:35.964Z,4.87
2018-09-20T03:03:02.904Z,5.20
2018-09-20T03:05:29.835Z,5.30
2018-09-20T03:07:56.749Z,4.90
2018-09-20T03:10:23.705Z,5.17
2018-09-20T03:12:50.622Z,5.07
2018-09-20T03:15:17.527Z,4.57
2018-09-20T03:17:44.425Z,4.57
2018-09-20T03:20:11.332Z,5.23
2018-09-20T03:22:38.236Z,4.67
2018-09-20T03:25:05.180Z,5.23
2018-09-20T03:27:32.084Z,5.30
2018-09-20T03:29:58.993Z,5.63
2018-09-20T03:32:25.926Z,5.13
2018-09-20T03:34:53.084Z,4.83
2018-09-20T03:37:20.016Z,5.47
2018-09-20T03:39:46.941Z,5.30
2018-09-20T03:42:13.845Z,5.40
2018-09-20T03:44:40.753Z,5.40
2018-09-20T03:47:07.697Z,5.00
2018-09-20T03:49:34.630Z,5.80
2018-09-20T03:52:01.545Z,6.10
2018-09-20T03:54:28.457Z,5.37
2018-09-20T03:56:55.389Z,5.20
2018-09-20T03:59:22.307Z,5.30
2018-09-20T04:01:49.218Z,5.87
2018-09-20T04:04:16.159Z,5.97
2018-09-20T04:06:43.067Z,5.93
2018-09-20T04:09:11.168Z,5.53
2018-09-20T04:11:38.329Z,6.50
2018-09-20T04:14:05.487Z,6.70
2018-09-20T04:16:32.399Z,6.00
2018-09-20T04:18:59.333Z,6.17
2018-09-20T04:21:31.844Z,5.70
2018-09-20T04:23:59.518Z,5.77
2018-09-20T04:26:26.747Z,5.67
2018-09-20T04:28:53.693Z,5.77
2018-09-20T04:31:20.636Z,6.20
2018-09-20T04:33:47.557Z,5.60
2018-09-20T04:36:14.481Z,5.37
2018-09-20T04:38:41.433Z,6.20
2018-09-20T04:41:08.377Z,6.03
2018-09-20T04:43:35.304Z,5.60
2018-09-20T04:46:02.259Z,5.20
2018-09-20T04:48:29.210Z,6.20
2018-09-20T04:50:56.140Z,5.50
2018-09-20T04:53:23.096Z,5.40
2018-09-20T04:55:50.043Z,6.00
2018-09-20T04:58:16.960Z,6.07
2018-09-20T05:00:43.905Z,5.50
2018-09-20T05:03:17.505Z,5.70
2018-09-20T05:05:44.441Z,5.53
2018-09-20T05:08:11.365Z,6.07
2018-09-20T05:10:38.309Z,6.00
2018-09-20T05:13:05.226Z,5.87
2018-09-20T05:15:32.149Z,5.60
2018-09-20T05:17:59.119Z,5.37
2018-09-20T05:20:26.060Z,6.33
2018-09-20T05:22:52.976Z,5.47
2018-09-20T05:25:19.924Z,5.00
2018-09-20T05:27:46.879Z,5.63
2018-09-20T05:30:13.857Z,6.47
2018-09-20T05:32:40.789Z,7.07
2018-09-20T05:35:07.721Z,5.80
2018-09-20T05:37:34.650Z,5.73
2018-09-20T05:40:01.590Z,5.57
2018-09-20T05:42:28.514Z,5.37
2018-09-20T05:44:55.433Z,5.77
2018-09-20T05:47:22.396Z,5.37
2018-09-20T05:49:49.300Z,5.27
2018-09-20T05:52:16.266Z,5.97
2018-09-20T05:54:43.197Z,5.33
2018-09-20T05:57:10.104Z,5.43
2018-09-20T05:59:37.040Z,6.13
2018-09-20T06:02:04.030Z,5.50
2018-09-20T06:04:30.965Z,5.50
2018-09-20T06:06:57.917Z,5.23
2018-09-20T06:09:24.845Z,5.50
2018-09-20T06:11:51.800Z,5.10
2018-09-20T06:14:18.800Z,5.20
2018-09-20T06:16:45.712Z,5.40
2018-09-20T06:19:12.637Z,5.10
2018-09-20T06:21:39.579Z,5.50
2018-09-20T06:24:06.793Z,5.03
2018-09-20T06:26:33.735Z,5.53
2018-09-20T06:29:00.661Z,5.53
2018-09-20T06:31:27.609Z,5.43
2018-09-20T06:33:54.551Z,5.63
2018-09-20T06:36:21.493Z,5.90
2018-09-20T06:38:48.473Z,5.40
2018-09-20T06:41:15.391Z,5.10
2018-09-20T06:43:42.336Z,5.57
2018-09-20T06:46:09.268Z,6.03
2018-09-20T06:48:36.187Z,5.17
2018-09-20T06:51:03.153Z,6.13
2018-09-20T06:53:30.078Z,5.20
2018-09-20T06:55:57.020Z,4.90
2018-09-20T06:58:23.959Z,5.87
2018-09-20T07:00:50.896Z,5.63
2018-09-20T07:03:17.886Z,5.93
2018-09-20T07:05:44.761Z,5.73
2018-09-20T07:08:11.697Z,5.90
2018-09-20T07:10:38.618Z,5.57
2018-09-20T07:13:05.569Z,5.47
2018-09-20T07:15:32.510Z,6.30
2018-09-20T07:17:59.459Z,5.50
2018-09-20T07:20:26.384Z,5.70
2018-09-20T07:22:53.353Z,5.87
2018-09-20T07:25:20.363Z,5.77
2018-09-20T07:27:47.234Z,6.20
2018-09-20T07:30:14.151Z,5.80
2018-09-20T07:32:41.138Z,5.77
2018-09-20T07:35:08.008Z,6.03
2018-09-20T07:37:34.936Z,5.93
2018-09-20T07:40:01.877Z,5.63
2018-09-20T07:42:28.801Z,5.90
2018-09-20T07:44:55.701Z,5.53
2018-09-20T07:47:22.713Z,5.83
2018-09-20T07:49:49.618Z,6.60
2018-09-20T07:52:16.532Z,6.00
2018-09-20T07:54:43.481Z,5.80
2018-09-20T07:57:10.419Z,6.33
2018-09-20T07:59:37.320Z,5.77
2018-09-20T08:02:04.327Z,6.60
2018-09-20T08:04:31.197Z,5.77
2018-09-20T08:06:58.170Z,6.00
2018-09-20T08:09:25.044Z,5.57
2018-09-20T08:11:51.958Z,5.57
2018-09-20T08:14:18.865Z,5.27
2018-09-20T08:16:45.777Z,5.47
2018-09-20T08:19:12.696Z,6.03
2018-09-20T08:21:39.749Z,6.03
2018-09-20T08:24:06.617Z,5.77
2018-09-20T08:26:33.533Z,6.10
2018-09-20T08:29:00.453Z,5.20
2018-09-20T08:31:27.361Z,5.47
2018-09-20T08:33:54.285Z,4.80
2018-09-20T08:36:21.197Z,5.77
2018-09-20T08:38:48.116Z,5.37
2018-09-20T08:41:15.024Z,5.17
2018-09-20T08:43:41.945Z,4.60
2018-09-20T08:46:08.845Z,4.73
2018-09-20T08:48:35.768Z,5.00
2018-09-20T08:51:02.747Z,5.37
2018-09-20T08:53:29.686Z,4.57
2018-09-20T08:55:56.600Z,4.77
2018-09-20T08:58:23.528Z,3.83
2018-09-20T09:00:50.428Z,4.60
2018-09-20T09:03:17.334Z,4.47
2018-09-20T09:05:44.248Z,4.30
2018-09-20T09:08:11.158Z,4.73
2018-09-20T09:10:38.072Z,4.43
2018-09-20T09:13:05.061Z,4.30
2018-09-20T09:15:31.956Z,4.30
2018-09-20T09:17:58.881Z,4.97
2018-09-20T09:20:25.787Z,4.30
2018-09-20T09:22:52.696Z,4.10
2018-09-20T09:25:19.618Z,4.23
2018-09-20T09:27:46.526Z,4.47
2018-09-20T09:30:13.452Z,4.57
2018-09-20T09:32:40.385Z,4.63
2018-09-20T09:35:07.313Z,4.20
2018-09-20T09:37:34.268Z,4.63
2018-09-20T09:40:01.189Z,3.97
2018-09-20T09:42:28.100Z,4.27
2018-09-20T09:44:55.046Z,4.00
2018-09-20T09:47:21.961Z,4.27
2018-09-20T09:49:48.868Z,4.53
2018-09-20T09:52:15.798Z,3.97
2018-09-20T09:54:42.737Z,4.70
2018-09-20T09:57:09.647Z,4.53
2018-09-20T09:59:36.603Z,4.27
2018-09-20T10:02:03.621Z,4.70
2018-09-20T10:04:30.558Z,4.03
2018-09-20T10:06:57.499Z,3.90
2018-09-20T10:09:24.424Z,4.07
2018-09-20T10:11:51.345Z,3.67
2018-09-20T10:14:18.258Z,4.30
2018-09-20T10:16:45.172Z,4.30
2018-09-20T10:19:12.113Z,3.80
2018-09-20T10:21:39.078Z,3.30
2018-09-20T10:24:06.030Z,3.70
2018-09-20T10:26:32.945Z,3.70
2018-09-20T10:28:59.856Z,3.73
2018-09-20T10:31:26.385Z,3.77
2018-09-20T10:33:53.325Z,4.23
2018-09-20T10:36:20.196Z,3.80
2018-09-20T10:38:47.113Z,4.17
2018-09-20T10:41:14.009Z,3.57
2018-09-20T10:43:40.922Z,4.60
2018-09-20T10:46:07.831Z,4.13
2018-09-20T10:48:34.748Z,3.80
2018-09-20T10:51:01.659Z,3.70
2018-09-20T10:53:28.577Z,3.60
2018-09-20T10:55:55.482Z,4.17
2018-09-20T10:58:22.430Z,3.87
2018-09-20T11:00:49.576Z,3.40
2018-09-20T11:03:16.512Z,3.23
2018-09-20T11:05:43.395Z,4.10
2018-09-20T11:08:10.305Z,4.10
2018-09-20T11:10:37.281Z,3.90
2018-09-20T11:13:04.377Z,3.23
2018-09-20T11:15:31.293Z,4.20
2018-09-20T11:17:58.215Z,3.67
2018-09-20T11:20:25.131Z,3.87
2018-09-20T11:22:52.026Z,3.60
2018-09-20T11:25:18.944Z,3.87
2018-09-20T11:27:45.862Z,3.83
2018-09-20T11:32:46.436Z,3.77
2018-09-20T11:35:13.466Z,3.57
2018-09-20T11:37:40.389Z,4.13
2018-09-20T11:40:07.308Z,4.60
2018-09-20T11:42:34.228Z,4.13
2018-09-20T11:45:01.169Z,3.63
2018-09-20T11:47:28.088Z,4.07
2018-09-20T11:49:55.057Z,3.50
2018-09-20T11:52:21.984Z,4.20
2018-09-20T11:54:48.889Z,4.27
2018-09-20T11:57:15.816Z,3.73
2018-09-20T11:59:42.736Z,3.57
2018-09-20T12:02:09.677Z,3.80
2018-09-20T12:04:36.632Z,3.90
2018-09-20T12:07:03.629Z,3.80
2018-09-20T12:09:30.555Z,4.07
2018-09-20T12:11:57.466Z,3.90
2018-09-20T12:14:24.401Z,4.47
2018-09-20T12:16:51.332Z,3.70
2018-09-20T12:19:18.379Z,3.97
2018-09-20T12:21:45.301Z,3.67
2018-09-20T12:24:12.209Z,4.07
2018-09-20T12:26:39.170Z,3.80
2018-09-20T12:29:06.181Z,3.73
2018-09-20T12:31:33.155Z,3.83
2018-09-20T12:34:00.056Z,3.87
2018-09-20T12:36:26.991Z,3.67
2018-09-20T12:38:53.943Z,4.40
2018-09-20T12:41:20.861Z,3.80
2018-09-20T12:43:47.788Z,3.90
2018-09-20T12:46:14.732Z,3.63
2018-09-20T12:48:41.656Z,4.00
2018-09-20T12:51:08.637Z,4.17
2018-09-20T12:53:35.592Z,3.97
2018-09-20T12:56:02.536Z,4.10
2018-09-20T12:58:38.973Z,4.00
2018-09-20T13:01:06.027Z,3.60
2018-09-20T13:03:32.936Z,3.80
2018-09-20T13:05:59.882Z,4.13
2018-09-20T13:08:26.818Z,3.97
2018-09-20T13:10:53.764Z,3.77
2018-09-20T13:13:20.913Z,4.33
2018-09-20T13:15:48.024Z,4.30
2018-09-20T13:18:14.964Z,3.97
2018-09-20T13:20:41.902Z,3.93
2018-09-20T13:23:09.216Z,4.63
2018-09-20T13:25:36.208Z,3.90
2018-09-20T13:28:03.106Z,3.73
2018-09-20T13:30:30.030Z,3.63
2018-09-20T13:32:56.969Z,3.73
2018-09-20T13:35:23.911Z,4.07
2018-09-20T13:37:50.858Z,3.77
2018-09-20T13:40:17.798Z,4.10
2018-09-20T13:42:44.730Z,3.90
2018-09-20T13:45:11.681Z,4.17
2018-09-20T13:47:38.605Z,3.67
2018-09-20T13:50:05.560Z,3.93
2018-09-20T13:52:32.467Z,4.23
2018-09-20T13:54:59.372Z,4.20
2018-09-20T13:57:26.307Z,3.53
2018-09-20T13:59:53.215Z,3.90
2018-09-20T14:02:20.116Z,3.73
2018-09-20T14:04:47.064Z,3.73
2018-09-20T14:07:13.977Z,4.00
2018-09-20T14:09:40.873Z,3.90
2018-09-20T14:12:07.782Z,4.40
2018-09-20T14:14:34.718Z,3.87
2018-09-20T14:17:01.625Z,4.03
2018-09-20T14:19:28.541Z,3.87
2018-09-20T14:21:55.453Z,3.70
2018-09-20T14:24:22.351Z,4.10
2018-09-20T14:26:49.294Z,3.80
2018-09-20T14:29:16.206Z,4.80
2018-09-20T14:31:43.137Z,3.80
2018-09-20T14:34:10.065Z,3.70
2018-09-20T14:36:37.009Z,3.03
2018-09-20T14:39:06.983Z,3.97
2018-09-20T14:41:33.914Z,3.80
2018-09-20T14:44:00.834Z,3.87
2018-09-20T14:46:27.759Z,3.40
2018-09-20T14:48:54.680Z,3.80
2018-09-20T14:51:21.633Z,3.37
2018-09-20T14:53:48.580Z,4.10
2018-09-20T14:56:15.525Z,3.40
2018-09-20T14:58:42.449Z,3.70
2018-09-20T15:01:09.360Z,3.37
2018-09-20T15:03:36.342Z,3.83
2018-09-20T15:06:03.412Z,3.83
2018-09-20T15:08:30.377Z,3.40
2018-09-20T15:10:57.734Z,3.53
2018-09-20T15:13:24.665Z,4.00
2018-09-20T15:15:51.582Z,3.40
2018-09-20T15:18:18.518Z,3.60
2018-09-20T15:20:45.448Z,3.70
2018-09-20T15:23:12.377Z,3.50
2018-09-20T15:25:39.306Z,3.27
2018-09-20T15:28:06.231Z,3.80
2018-09-20T15:30:33.156Z,3.30
2018-09-20T15:33:00.091Z,3.50
2018-09-20T15:35:27.005Z,3.60
2018-09-20T15:37:53.909Z,3.57
2018-09-20T15:40:20.830Z,3.57
2018-09-20T15:42:47.749Z,3.97
2018-09-20T15:45:14.664Z,3.33
2018-09-20T15:47:41.589Z,3.57
2018-09-20T15:50:08.508Z,3.80
2018-09-20T15:52:35.428Z,3.87
2018-09-20T15:55:02.362Z,3.90
2018-09-20T15:57:29.294Z,4.00
2018-09-20T15:59:56.215Z,3.70
2018-09-20T16:02:23.133Z,3.57
2018-09-20T16:04:50.060Z,3.10
2018-09-20T16:07:16.965Z,3.63
2018-09-20T16:09:43.876Z,4.73
2018-09-20T16:12:10.784Z,3.60
2018-09-20T16:14:37.692Z,3.70
2018-09-20T16:17:04.663Z,3.40
2018-09-20T16:19:31.583Z,3.47
2018-09-20T16:21:58.486Z,3.83
2018-09-20T16:24:25.407Z,3.77
2018-09-20T16:26:52.308Z,3.37
2018-09-20T16:29:39.604Z,4.10
2018-09-20T16:32:13.069Z,3.80
2018-09-20T16:35:52.974Z,4.10
2018-09-20T16:38:36.054Z,4.20
2018-09-20T16:41:04.465Z,4.10
2018-09-20T16:43:31.385Z,4.10
2018-09-20T16:45:58.972Z,4.50
2018-09-20T16:48:25.911Z,4.73
2018-09-20T16:50:52.793Z,3.87
2018-09-20T16:53:19.764Z,4.33
2018-09-20T16:55:46.607Z,4.50
2018-09-20T16:58:13.504Z,4.70
2018-09-20T17:00:40.409Z,4.70
2018-09-20T17:03:07.302Z,4.60
2018-09-20T17:05:34.207Z,4.97
2018-09-20T17:08:01.162Z,4.97
2018-09-20T17:10:28.075Z,5.20
2018-09-20T17:12:54.996Z,5.23
2018-09-20T17:15:21.909Z,5.13
2018-09-20T17:17:48.802Z,5.07
2018-09-20T17:20:15.705Z,5.10
2018-09-20T17:22:42.606Z,5.60
2018-09-20T17:25:09.530Z,5.30
2018-09-20T17:27:36.430Z,5.63
2018-09-20T17:30:03.418Z,5.60
2018-09-20T17:32:30.333Z,6.57
2018-09-20T17:34:57.464Z,6.53
2018-09-20T17:37:25.965Z,6.30
2018-09-20T17:39:54.502Z,6.47
2018-09-20T17:42:22.464Z,6.90
2018-09-20T17:44:49.417Z,5.67
2018-09-20T17:47:16.335Z,6.47
2018-09-20T17:49:43.217Z,6.33
2018-09-20T17:52:10.517Z,6.33
2018-09-20T17:54:37.737Z,6.67
2018-09-20T17:57:04.997Z,5.93
2018-09-20T17:59:31.949Z,6.57
2018-09-20T18:01:58.858Z,6.20
2018-09-20T18:04:25.772Z,6.03
2018-09-20T18:07:24.811Z,6.87
2018-09-20T18:09:51.752Z,6.43
2018-09-20T18:12:18.685Z,7.10
2018-09-20T18:14:45.607Z,6.90
2018-09-20T18:17:12.542Z,7.17
2018-09-20T18:19:39.464Z,7.33
2018-09-20T18:22:06.575Z,7.30
2018-09-20T18:24:33.505Z,7.60
2018-09-20T18:27:00.425Z,6.87
2018-09-20T18:29:27.345Z,8.10
2018-09-20T18:31:54.273Z,7.60
2018-09-20T18:34:21.224Z,7.80
2018-09-20T18:36:48.121Z,7.33
2018-09-20T18:39:15.045Z,7.70
2018-09-20T18:41:43.682Z,8.30
2018-09-20T18:44:10.593Z,8.70
2018-09-20T18:46:37.601Z,8.40
2018-09-20T18:49:05.104Z,7.90
2018-09-20T18:51:32.034Z,7.97
2018-09-20T18:53:58.953Z,8.17
2018-09-20T18:56:25.936Z,8.23
2018-09-20T18:58:52.876Z,8.67
2018-09-20T19:01:19.781Z,8.30
2018-09-20T19:03:46.717Z,7.97
2018-09-20T19:06:13.643Z,7.43
2018-09-20T19:08:40.569Z,7.90
2018-09-20T19:11:07.491Z,8.00
2018-09-20T19:13:34.437Z,7.60
2018-09-20T19:16:01.352Z,7.57
2018-09-20T19:18:28.276Z,7.47
2018-09-20T19:20:55.226Z,8.33
2018-09-20T19:23:22.151Z,7.43
2018-09-20T19:25:49.978Z,7.73
2018-09-20T19:28:17.099Z,7.70
2018-09-20T19:30:44.259Z,7.43
2018-09-20T19:33:11.188Z,7.57
2018-09-20T19:35:38.116Z,8.50
2018-09-20T19:38:05.066Z,7.40
2018-09-20T19:40:31.981Z,7.60
2018-09-20T19:42:58.935Z,7.33
2018-09-20T19:45:25.853Z,6.97
2018-09-20T19:47:53.272Z,7.43
2018-09-20T19:50:20.305Z,7.20
2018-09-20T19:52:47.281Z,7.07
2018-09-20T19:55:14.271Z,6.57
2018-09-20T19:57:41.264Z,6.10
2018-09-20T20:00:08.237Z,6.73
2018-09-20T20:02:35.232Z,6.70
2018-09-20T20:05:02.222Z,5.73
2018-09-20T20:07:29.170Z,5.40
2018-09-20T20:09:56.091Z,6.10
2018-09-20T20:12:22.996Z,5.83
2018-09-20T20:14:49.923Z,6.10
2018-09-20T20:17:16.847Z,5.80
2018-09-20T20:19:43.815Z,6.07
2018-09-20T20:22:10.716Z,5.23
2018-09-20T20:24:37.633Z,5.80
2018-09-20T20:27:04.672Z,5.27
2018-09-20T20:29:31.603Z,5.73
2018-09-20T20:31:58.529Z,5.37
2018-09-20T20:34:25.458Z,5.30
2018-09-20T20:36:52.355Z,5.20
2018-09-20T20:39:19.275Z,5.27
2018-09-20T20:41:46.189Z,5.00
2018-09-20T20:44:13.128Z,5.30
2018-09-20T20:46:40.033Z,4.70
2018-09-20T20:49:06.962Z,5.50
2018-09-20T20:51:33.900Z,4.67
2018-09-20T20:54:00.824Z,4.63
2018-09-20T20:56:27.745Z,5.20
2018-09-20T20:58:55.150Z,5.20
2018-09-20T21:01:21.972Z,5.40
2018-09-20T21:03:49.652Z,4.77
2018-09-20T21:06:17.204Z,4.20
2018-09-20T21:08:44.249Z,4.53
2018-09-20T21:11:11.158Z,4.33
2018-09-20T21:13:38.136Z,4.40
2018-09-20T21:16:05.070Z,4.30
2018-09-20T21:18:31.997Z,4.50
2018-09-20T21:20:58.900Z,4.50
2018-09-20T21:23:25.836Z,4.50
2018-09-20T21:25:52.753Z,4.77
2018-09-20T21:28:19.665Z,4.50
2018-09-20T21:30:46.585Z,4.33
2018-09-20T21:33:13.507Z,4.80
2018-09-20T21:35:40.455Z,4.60
2018-09-20T21:38:07.357Z,4.40
2018-09-20T21:40:34.297Z,4.03
2018-09-20T21:43:01.211Z,5.00
2018-09-20T21:45:28.138Z,4.80
2018-09-20T21:47:55.085Z,4.30
2018-09-20T21:50:22.023Z,4.47
2018-09-20T21:52:48.944Z,4.33
2018-09-20T21:55:15.868Z,4.00
2018-09-20T21:57:42.780Z,4.37
2018-09-20T22:00:09.781Z,4.37
2018-09-20T22:02:42.541Z,4.80
2018-09-20T22:05:09.460Z,4.67
2018-09-20T22:07:36.369Z,4.73
2018-09-20T22:10:03.351Z,4.30
2018-09-20T22:12:30.257Z,4.00
2018-09-20T22:14:57.188Z,4.87
2018-09-20T22:17:24.085Z,4.10
2018-09-20T22:19:50.997Z,4.60
2018-09-20T22:22:17.920Z,4.77
2018-09-20T22:24:44.834Z,4.90
2018-09-20T22:27:11.748Z,4.47
2018-09-20T22:29:38.676Z,4.60
2018-09-20T22:32:05.612Z,5.20
2018-09-20T22:34:32.532Z,4.73
2018-09-20T22:36:59.452Z,4.67
2018-09-20T22:39:26.376Z,4.90
2018-09-20T22:41:53.280Z,5.07
2018-09-20T22:44:20.196Z,5.10
2018-09-20T22:46:47.100Z,4.30
2018-09-20T22:49:14.025Z,4.10
2018-09-20T22:51:40.937Z,4.80
2018-09-20T22:54:07.844Z,4.90
2018-09-20T22:56:34.768Z,4.70
2018-09-20T22:59:01.679Z,4.60
2018-09-20T23:01:28.590Z,4.40
2018-09-20T23:03:55.505Z,4.13
2018-09-20T23:06:22.444Z,4.47
2018-09-20T23:08:49.352Z,4.40
2018-09-20T23:11:16.280Z,3.97
2018-09-20T23:13:43.190Z,4.53
2018-09-20T23:16:10.114Z,5.13
2018-09-20T23:18:43.679Z,4.30
2018-09-20T23:21:10.596Z,4.57
2018-09-20T23:23:37.596Z,4.40
2018-09-20T23:26:04.532Z,3.93
2018-09-20T23:28:31.432Z,4.27
2018-09-20T23:30:58.373Z,4.50
2018-09-20T23:33:25.278Z,4.27
2018-09-20T23:35:52.212Z,3.70
2018-09-20T23:38:19.111Z,4.00
2018-09-20T23:40:46.025Z,4.10
2018-09-20T23:43:12.932Z,4.50
2018-09-20T23:45:39.842Z,4.27
2018-09-20T23:48:06.865Z,3.97
2018-09-20T23:50:33.780Z,4.20
2018-09-20T23:53:00.702Z,4.30
2018-09-20T23:55:27.609Z,4.17
2018-09-20T23:57:54.509Z,4.27
